Time;durP1;ratioP1;P1;durP2;ratioP2;P2;SDS_P1;SDS_P2;PMS_P1;PMS_P2;Temp;Humidity;BMP_temperature;BMP_pressure;BME280_temperature;BME280_humidity;BME280_pressure;Samples;Min_cycle;Max_cycle;Signal;HPM_P1;HPM_P2
2021/12/27 00:01:01;;;;;;;4.53;1.90;;;2.80;91.20;;;;;;5072421;28;20449;-84
2021/12/27 00:03:56;;;;;;;3.97;1.67;;;2.80;91.20;;;;;;5070658;28;20483;-80
2021/12/27 00:07:30;;;;;;;4.40;1.55;;;2.80;91.20;;;;;;5084526;28;20051;-80
2021/12/27 00:10:20;;;;;;;2.63;1.15;;;2.80;91.30;;;;;;5069609;28;20056;-79
2021/12/27 00:12:48;;;;;;;3.40;1.30;;;2.80;91.20;;;;;;5053819;28;20052;-78
2021/12/27 00:15:29;;;;;;;4.97;1.33;;;2.80;91.30;;;;;;5087066;28;20500;-88
2021/12/27 00:21:53;;;;;;;3.77;1.10;;;2.90;91.40;;;;;;5088263;28;20040;-83
2021/12/27 00:30:25;;;;;;;;;;;;;;;;;;;;;
2021/12/27 00:33:40;;;;;;;3.53;1.37;;;2.80;91.30;;;;;;5087443;28;20054;-96
2021/12/27 00:36:22;;;;;;;4.23;1.30;;;2.80;91.30;;;;;;5060830;28;20131;-85
2021/12/27 00:38:49;;;;;;;5.78;1.95;;;2.80;91.40;;;;;;5088708;28;20052;-94
2021/12/27 00:41:25;;;;;;;3.58;1.42;;;2.80;91.70;;;;;;5072035;28;20051;-86
2021/12/27 00:44:14;;;;;;;3.17;1.17;;;2.90;91.50;;;;;;5087941;28;20093;-81
2021/12/27 00:47:07;;;;;;;3.03;1.30;;;2.90;91.50;;;;;;5068750;28;20047;-82
2021/12/27 00:49:37;;;;;;;2.78;1.10;;;2.90;91.50;;;;;;5067974;28;20040;-86
2021/12/27 00:52:32;;;;;;;3.47;1.30;;;2.90;91.50;;;;;;5069550;28;20155;-85
2021/12/27 00:56:14;;;;;;;4.00;1.30;;;2.90;91.50;;;;;;5084708;28;20039;-89
2021/12/27 00:58:50;;;;;;;2.97;1.07;;;3.00;91.50;;;;;;5070676;28;20075;-85
2021/12/27 01:01:20;;;;;;;2.47;1.17;;;2.90;91.50;;;;;;5052943;28;20064;-87
2021/12/27 01:03:54;;;;;;;3.10;1.30;;;3.00;91.60;;;;;;5071103;28;20043;-89
2021/12/27 01:06:32;;;;;;;2.33;1.00;;;3.00;91.60;;;;;;5086395;28;20044;-81
2021/12/27 01:13:04;;;;;;;4.03;1.63;;;3.00;91.60;;;;;;5088237;28;20062;-79
2021/12/27 01:19:06;;;;;;;3.00;1.13;;;3.00;91.60;;;;;;5087216;28;20086;-82
2021/12/27 01:22:01;;;;;;;4.35;1.58;;;3.10;91.60;;;;;;5073670;28;20138;-82
2021/12/27 01:25:05;;;;;;;4.07;1.63;;;3.00;91.60;;;;;;5056631;28;20126;-91
2021/12/27 01:28:03;;;;;;;2.85;1.35;;;3.10;91.90;;;;;;5072911;28;20045;-90
2021/12/27 01:30:47;;;;;;;4.15;1.52;;;3.00;91.70;;;;;;5088856;28;20129;-91
2021/12/27 01:33:24;;;;;;;4.60;1.63;;;3.00;91.70;;;;;;5079638;28;20139;-95
2021/12/27 01:36:44;;;;;;;2.55;1.15;;;3.10;91.70;;;;;;5067540;28;20126;-88
2021/12/27 01:39:26;;;;;;;3.25;1.25;;;3.00;91.70;;;;;;5073843;28;20285;-85
2021/12/27 01:41:59;;;;;;;3.73;1.30;;;3.10;91.70;;;;;;5084470;28;20059;-82
2021/12/27 01:44:27;;;;;;;2.73;1.20;;;3.10;91.70;;;;;;5066205;28;20112;-77
2021/12/27 01:46:57;;;;;;;4.00;1.43;;;3.10;91.70;;;;;;5091990;28;20110;-84
2021/12/27 01:49:35;;;;;;;2.70;1.20;;;3.10;91.70;;;;;;5085030;28;20051;-83
2021/12/27 01:52:24;;;;;;;4.17;1.97;;;3.10;91.80;;;;;;5053820;28;20059;-80
2021/12/27 01:54:51;;;;;;;2.63;1.00;;;3.10;91.80;;;;;;5084448;28;20051;-81
2021/12/27 01:57:18;;;;;;;4.00;1.43;;;3.10;91.80;;;;;;5083771;28;20032;-81
2021/12/27 01:59:54;;;;;;;3.10;1.07;;;3.10;91.80;;;;;;5065549;28;20105;-80
2021/12/27 02:02:58;;;;;;;3.27;1.40;;;3.10;91.80;;;;;;5089278;28;20507;-80
2021/12/27 02:05:26;;;;;;;3.20;1.30;;;3.20;91.90;;;;;;5089827;28;20040;-80
2021/12/27 02:07:57;;;;;;;3.60;1.63;;;3.20;91.90;;;;;;5088918;28;20055;-82
2021/12/27 02:10:29;;;;;;;3.53;1.40;;;3.20;91.90;;;;;;5072373;28;20051;-82
2021/12/27 02:12:56;;;;;;;3.63;1.20;;;3.20;91.90;;;;;;5072476;28;20051;-83
2021/12/27 02:15:37;;;;;;;3.13;1.40;;;3.20;91.90;;;;;;5041273;28;20047;-83
2021/12/27 02:18:22;;;;;;;4.15;1.60;;;3.20;91.90;;;;;;5088814;28;20503;-83
2021/12/27 02:20:52;;;;;;;4.87;1.90;;;3.20;91.90;;;;;;5086380;28;20070;-82
2021/12/27 02:23:23;;;;;;;3.87;1.50;;;3.20;91.90;;;;;;5088618;28;20097;-81
2021/12/27 02:26:02;;;;;;;3.67;2.00;;;3.20;91.90;;;;;;5055520;28;20096;-84
2021/12/27 02:28:29;;;;;;;3.92;1.85;;;3.20;92.00;;;;;;5080148;28;20040;-79
2021/12/27 02:30:56;;;;;;;4.47;1.67;;;3.20;92.00;;;;;;5071296;28;20044;-81
2021/12/27 02:33:23;;;;;;;4.87;2.10;;;3.20;92.00;;;;;;5070893;28;20052;-79
2021/12/27 02:36:04;;;;;;;4.07;1.37;;;3.20;92.00;;;;;;5055000;28;20126;-81
2021/12/27 02:38:35;;;;;;;3.63;1.57;;;3.20;92.00;;;;;;5088943;28;20210;-80
2021/12/27 02:41:02;;;;;;;2.97;1.17;;;3.20;92.00;;;;;;5089183;28;20074;-79
2021/12/27 02:43:31;;;;;;;4.33;1.50;;;3.30;92.00;;;;;;5037978;28;20131;-79
2021/12/27 02:46:02;;;;;;;3.20;1.37;;;3.30;92.00;;;;;;5088143;28;20507;-78
2021/12/27 02:48:32;;;;;;;3.20;1.30;;;3.30;92.00;;;;;;5071403;28;20083;-80
2021/12/27 02:51:00;;;;;;;3.03;0.98;;;3.30;92.10;;;;;;5087234;28;20051;-79
2021/12/27 02:53:30;;;;;;;3.87;1.40;;;3.30;92.10;;;;;;5076435;28;20048;-79
2021/12/27 02:56:00;;;;;;;3.00;1.23;;;3.30;92.10;;;;;;5065875;28;20052;-78
2021/12/27 02:58:27;;;;;;;3.08;1.25;;;3.30;92.10;;;;;;5085984;28;20046;-78
2021/12/27 03:01:03;;;;;;;3.80;1.40;;;3.30;92.10;;;;;;5070244;28;20556;-80
2021/12/27 03:03:31;;;;;;;2.95;1.25;;;3.40;92.10;;;;;;5087446;28;20076;-79
2021/12/27 03:05:58;;;;;;;3.13;1.20;;;3.40;92.10;;;;;;5053643;28;20071;-79
2021/12/27 03:08:26;;;;;;;4.00;1.73;;;3.40;92.10;;;;;;5084265;28;20580;-79
2021/12/27 03:10:58;;;;;;;3.40;1.57;;;3.40;92.10;;;;;;5086170;28;20093;-78
2021/12/27 03:13:36;;;;;;;3.38;1.27;;;3.40;92.10;;;;;;5086044;28;20507;-78
2021/12/27 03:16:10;;;;;;;4.30;1.67;;;3.40;92.10;;;;;;5082059;28;20467;-79
2021/12/27 03:18:39;;;;;;;2.92;1.48;;;3.40;92.20;;;;;;5068262;28;20824;-77
2021/12/27 03:21:08;;;;;;;3.60;1.23;;;3.40;92.20;;;;;;5062845;28;20036;-77
2021/12/27 03:23:39;;;;;;;2.90;1.25;;;3.40;92.20;;;;;;5049507;28;20077;-76
2021/12/27 03:26:07;;;;;;;2.53;1.08;;;3.50;92.20;;;;;;5065870;28;20606;-77
2021/12/27 03:28:34;;;;;;;2.75;1.02;;;3.50;92.20;;;;;;5087417;28;20076;-78
2021/12/27 03:31:02;;;;;;;3.63;1.25;;;3.50;92.20;;;;;;5070526;28;20094;-78
2021/12/27 03:33:32;;;;;;;3.93;1.30;;;3.50;92.20;;;;;;5087006;28;20119;-78
2021/12/27 03:36:04;;;;;;;4.87;1.40;;;3.50;92.20;;;;;;5070318;28;20101;-77
2021/12/27 03:38:47;;;;;;;3.97;1.63;;;3.50;92.20;;;;;;5071450;28;20075;-78
2021/12/27 03:41:18;;;;;;;3.28;1.05;;;3.50;92.20;;;;;;5070962;28;20458;-77
2021/12/27 03:43:46;;;;;;;3.58;1.45;;;3.50;92.20;;;;;;5068804;28;20040;-78
2021/12/27 03:46:15;;;;;;;3.38;1.13;;;3.50;92.30;;;;;;5086756;28;20909;-78
2021/12/27 03:48:43;;;;;;;3.22;1.27;;;3.50;92.20;;;;;;5086985;28;20044;-78
2021/12/27 03:51:10;;;;;;;3.35;1.27;;;3.50;92.20;;;;;;5054199;28;20056;-77
2021/12/27 03:53:38;;;;;;;3.20;1.10;;;3.50;92.30;;;;;;5069700;28;20051;-78
2021/12/27 03:56:05;;;;;;;3.42;1.05;;;3.60;92.30;;;;;;5053579;28;20117;-77
2021/12/27 03:58:45;;;;;;;2.92;1.10;;;3.60;92.30;;;;;;5070674;28;20044;-78
2021/12/27 04:01:21;;;;;;;2.40;1.00;;;3.60;92.30;;;;;;5054431;28;20056;-78
2021/12/27 04:03:52;;;;;;;3.30;1.25;;;3.60;92.40;;;;;;5083289;28;20047;-78
2021/12/27 04:06:21;;;;;;;2.78;1.00;;;3.60;92.30;;;;;;5082408;28;20051;-78
2021/12/27 04:08:50;;;;;;;2.55;1.05;;;3.60;92.40;;;;;;5084463;28;20097;-78
2021/12/27 04:11:18;;;;;;;3.20;1.30;;;3.60;92.40;;;;;;5068831;28;20043;-78
2021/12/27 04:13:45;;;;;;;4.00;1.52;;;3.60;92.40;;;;;;5068959;28;20131;-78
2021/12/27 04:16:12;;;;;;;3.30;1.10;;;3.70;92.40;;;;;;5069068;28;20055;-78
2021/12/27 04:18:39;;;;;;;4.97;1.92;;;3.70;92.40;;;;;;5053791;28;20032;-78
2021/12/27 04:21:10;;;;;;;3.38;1.20;;;3.70;92.40;;;;;;5068276;28;20052;-78
2021/12/27 04:23:37;;;;;;;3.72;1.13;;;3.70;92.40;;;;;;5084038;28;20093;-78
2021/12/27 04:26:04;;;;;;;3.63;1.38;;;3.70;92.40;;;;;;5061594;28;20591;-78
2021/12/27 04:28:31;;;;;;;3.80;1.55;;;3.70;92.50;;;;;;5052517;28;20059;-78
2021/12/27 04:30:59;;;;;;;3.97;1.20;;;3.70;92.50;;;;;;5067906;28;20052;-78
2021/12/27 04:33:26;;;;;;;3.22;1.48;;;3.70;92.40;;;;;;5085628;28;20051;-78
2021/12/27 04:35:53;;;;;;;4.15;1.10;;;3.70;92.40;;;;;;5051157;28;20048;-78
2021/12/27 04:38:20;;;;;;;3.00;1.25;;;3.70;92.40;;;;;;5051663;28;20127;-78
2021/12/27 04:40:50;;;;;;;3.72;1.67;;;3.80;92.50;;;;;;5051194;28;20040;-77
2021/12/27 04:43:20;;;;;;;5.18;1.77;;;3.80;92.70;;;;;;5085641;28;20036;-78
2021/12/27 04:45:49;;;;;;;4.43;1.60;;;3.80;92.50;;;;;;5084114;28;20048;-78
2021/12/27 04:48:18;;;;;;;2.83;1.00;;;3.80;92.50;;;;;;5051537;28;20036;-77
2021/12/27 04:50:48;;;;;;;3.17;1.05;;;3.80;92.50;;;;;;5084969;28;20105;-77
2021/12/27 04:53:15;;;;;;;3.22;1.38;;;3.80;92.80;;;;;;5066586;28;20600;-77
2021/12/27 04:55:44;;;;;;;4.55;1.42;;;3.80;92.50;;;;;;5068580;28;20469;-78
2021/12/27 04:58:12;;;;;;;3.47;1.40;;;3.80;92.50;;;;;;5069370;28;20069;-77
2021/12/27 05:00:40;;;;;;;3.75;1.05;;;3.80;92.50;;;;;;5050918;28;20180;-78
2021/12/27 05:03:07;;;;;;;4.25;1.15;;;3.90;92.60;;;;;;5068811;28;20139;-77
2021/12/27 05:05:36;;;;;;;3.50;1.52;;;3.90;92.60;;;;;;5069138;28;20063;-77
2021/12/27 05:08:04;;;;;;;3.22;1.15;;;3.90;92.60;;;;;;5076885;28;20054;-77
2021/12/27 05:10:31;;;;;;;3.60;1.20;;;3.90;92.60;;;;;;5067747;28;20055;-77
2021/12/27 05:12:58;;;;;;;3.30;1.00;;;3.90;92.60;;;;;;5068297;28;20051;-77
2021/12/27 05:15:25;;;;;;;3.85;1.40;;;3.90;92.60;;;;;;5085047;28;20454;-78
2021/12/27 05:17:55;;;;;;;3.42;1.27;;;3.90;92.60;;;;;;5068954;28;20052;-78
2021/12/27 05:20:22;;;;;;;2.85;1.10;;;3.90;92.60;;;;;;5086915;28;20040;-78
2021/12/27 05:22:49;;;;;;;4.18;1.35;;;4.00;92.60;;;;;;5084140;28;20031;-78
2021/12/27 05:25:16;;;;;;;2.60;1.00;;;3.90;92.60;;;;;;5068398;28;20065;-78
2021/12/27 05:27:44;;;;;;;3.25;1.20;;;3.90;92.60;;;;;;5068836;28;20500;-78
2021/12/27 05:30:18;;;;;;;4.22;1.45;;;3.90;92.60;;;;;;5070051;28;20048;-77
2021/12/27 05:32:46;;;;;;;3.25;1.05;;;3.90;92.60;;;;;;5068248;28;20063;-77
2021/12/27 05:35:18;;;;;;;3.97;1.83;;;4.00;92.70;;;;;;5083073;28;20052;-78
2021/12/27 05:37:45;;;;;;;3.72;1.52;;;4.00;92.70;;;;;;5069200;28;20078;-78
2021/12/27 05:40:17;;;;;;;2.75;1.13;;;3.90;92.70;;;;;;5067806;28;20036;-78
2021/12/27 05:42:45;;;;;;;3.90;1.30;;;4.00;92.70;;;;;;5083317;28;20579;-78
2021/12/27 05:45:14;;;;;;;4.43;1.40;;;4.00;92.70;;;;;;5068030;28;20044;-78
2021/12/27 05:47:42;;;;;;;4.20;2.00;;;4.00;92.70;;;;;;5060672;28;20040;-80
2021/12/27 05:50:11;;;;;;;3.47;1.20;;;4.00;92.70;;;;;;5052014;28;20048;-78
2021/12/27 05:52:38;;;;;;;4.25;1.33;;;4.00;92.70;;;;;;5065100;28;20067;-78
2021/12/27 05:55:07;;;;;;;3.72;1.63;;;4.00;92.70;;;;;;5050154;28;20080;-78
2021/12/27 05:57:35;;;;;;;3.83;1.15;;;4.00;92.70;;;;;;5081908;28;20055;-78
2021/12/27 06:00:05;;;;;;;3.33;1.35;;;4.00;92.70;;;;;;5032850;28;20109;-78
2021/12/27 06:02:39;;;;;;;3.30;1.23;;;4.00;92.70;;;;;;5084835;28;20105;-78
2021/12/27 06:05:07;;;;;;;2.60;0.90;;;4.10;92.80;;;;;;5067874;28;20055;-77
2021/12/27 06:07:34;;;;;;;3.45;1.50;;;4.00;92.70;;;;;;5084322;28;20055;-78
2021/12/27 06:10:03;;;;;;;3.47;1.65;;;4.10;92.70;;;;;;5084796;28;20058;-78
2021/12/27 06:12:31;;;;;;;3.22;1.55;;;4.10;92.80;;;;;;5085299;28;20063;-78
2021/12/27 06:15:01;;;;;;;3.65;1.30;;;4.10;92.80;;;;;;5067725;28;20065;-78
2021/12/27 06:17:31;;;;;;;3.90;1.77;;;4.10;92.80;;;;;;5067913;28;20728;-78
2021/12/27 06:20:04;;;;;;;3.72;1.50;;;4.10;92.80;;;;;;5052255;28;20048;-77
2021/12/27 06:22:31;;;;;;;;;;;4.20;92.80;;;;;;5069298;28;20048;-78
2021/12/27 06:25:03;;;;;;;2.80;1.00;;;4.10;92.80;;;;;;5067009;28;19992;-77
2021/12/27 06:27:33;;;;;;;3.13;1.30;;;4.10;92.80;;;;;;5060394;28;20052;-77
2021/12/27 06:30:03;;;;;;;2.88;0.98;;;4.10;92.80;;;;;;5083915;28;20055;-78
2021/12/27 06:32:30;;;;;;;2.40;1.00;;;4.10;92.80;;;;;;5085708;28;20058;-78
2021/12/27 06:34:57;;;;;;;2.77;1.20;;;4.20;92.90;;;;;;5084040;28;20048;-78
2021/12/27 06:37:24;;;;;;;2.42;1.10;;;4.20;92.90;;;;;;5050904;28;20068;-77
2021/12/27 06:39:51;;;;;;;3.05;1.20;;;4.20;92.90;;;;;;5059755;28;20612;-78
2021/12/27 06:42:18;;;;;;;3.58;1.13;;;4.30;92.90;;;;;;5067276;28;20040;-78
2021/12/27 06:44:45;;;;;;;3.97;1.60;;;4.30;92.90;;;;;;5083957;28;20500;-77
2021/12/27 06:47:12;;;;;;;4.20;1.40;;;4.30;92.90;;;;;;5084892;28;20046;-78
2021/12/27 06:49:41;;;;;;;3.00;1.17;;;4.30;92.90;;;;;;5070564;28;20071;-78
2021/12/27 06:52:11;;;;;;;2.85;1.08;;;4.30;92.90;;;;;;5085640;28;20052;-78
2021/12/27 06:54:40;;;;;;;3.28;1.23;;;4.30;92.90;;;;;;5070643;28;20056;-79
2021/12/27 06:57:07;;;;;;;3.17;1.20;;;4.30;92.90;;;;;;5054647;28;20567;-78
2021/12/27 06:59:34;;;;;;;3.25;1.42;;;4.30;92.90;;;;;;5071051;28;20469;-78
2021/12/27 07:02:01;;;;;;;3.50;1.50;;;4.40;92.90;;;;;;5088293;28;20155;-78
2021/12/27 07:04:31;;;;;;;3.50;1.40;;;4.40;92.90;;;;;;5069700;28;20127;-78
2021/12/27 07:06:58;;;;;;;3.30;1.10;;;4.40;92.90;;;;;;5084761;28;20691;-78
2021/12/27 07:09:25;;;;;;;3.80;1.20;;;4.40;92.90;;;;;;5068758;28;20488;-78
2021/12/27 07:11:54;;;;;;;3.70;1.67;;;4.40;93.00;;;;;;5084281;28;20054;-78
2021/12/27 07:14:27;;;;;;;1.95;0.90;;;4.40;92.90;;;;;;5083985;28;20044;-77
2021/12/27 07:16:55;;;;;;;3.00;0.98;;;4.40;92.90;;;;;;5066057;28;20052;-77
2021/12/27 07:19:24;;;;;;;4.15;1.40;;;4.50;93.00;;;;;;5068101;28;20048;-80
2021/12/27 07:21:51;;;;;;;5.13;1.70;;;4.50;93.00;;;;;;5083540;28;20032;-79
2021/12/27 07:24:21;;;;;;;4.25;1.70;;;4.50;93.00;;;;;;5051014;28;20051;-79
2021/12/27 07:26:48;;;;;;;4.45;2.10;;;4.50;93.00;;;;;;5084128;28;20040;-79
2021/12/27 07:29:18;;;;;;;2.93;1.23;;;4.50;93.00;;;;;;5070686;28;20047;-79
2021/12/27 07:31:45;;;;;;;4.88;1.48;;;4.60;93.30;;;;;;5086835;28;20047;-78
2021/12/27 07:34:13;;;;;;;2.63;1.23;;;4.60;93.00;;;;;;5086486;28;20565;-77
2021/12/27 07:36:40;;;;;;;4.43;2.00;;;4.60;93.00;;;;;;5069198;28;20048;-81
2021/12/27 07:39:07;;;;;;;4.85;1.70;;;4.60;93.00;;;;;;5053057;28;20048;-81
2021/12/27 07:41:39;;;;;;;3.58;1.30;;;4.60;93.00;;;;;;5054056;28;20048;-81
2021/12/27 07:44:08;;;;;;;3.10;1.45;;;4.60;93.10;;;;;;5060867;28;20055;-80
2021/12/27 07:46:42;;;;;;;4.88;1.83;;;4.60;93.00;;;;;;5036401;28;20067;-80
2021/12/27 07:49:10;;;;;;;3.50;1.45;;;4.60;93.00;;;;;;5071053;28;20040;-79
2021/12/27 07:51:38;;;;;;;4.22;1.27;;;4.60;93.00;;;;;;5070383;28;20059;-79
2021/12/27 07:54:05;;;;;;;3.28;1.20;;;4.60;93.10;;;;;;5068621;28;20052;-79
2021/12/27 07:56:33;;;;;;;3.67;1.65;;;4.60;93.10;;;;;;5083955;28;20059;-79
2021/12/27 07:59:04;;;;;;;3.53;1.30;;;4.60;93.10;;;;;;5053971;28;20047;-79
2021/12/27 08:01:32;;;;;;;4.55;1.70;;;4.60;93.10;;;;;;5069250;28;20059;-79
2021/12/27 08:03:59;;;;;;;4.38;1.45;;;4.60;93.10;;;;;;5036181;28;20561;-79
2021/12/27 08:06:26;;;;;;;4.00;1.50;;;4.60;93.10;;;;;;5086121;28;20492;-79
2021/12/27 08:08:59;;;;;;;4.22;1.73;;;4.60;93.10;;;;;;5053887;28;20040;-79
2021/12/27 08:11:27;;;;;;;3.80;1.67;;;4.70;93.10;;;;;;5052038;28;20060;-80
2021/12/27 08:13:54;;;;;;;3.72;1.48;;;4.70;93.10;;;;;;5052706;28;20742;-80
2021/12/27 08:16:24;;;;;;;3.50;1.33;;;4.70;93.20;;;;;;5066770;28;20071;-81
2021/12/27 08:18:55;;;;;;;4.05;1.60;;;4.70;93.20;;;;;;5060187;28;20048;-81
2021/12/27 08:21:23;;;;;;;3.80;1.60;;;4.70;93.20;;;;;;5085280;28;20038;-81
2021/12/27 08:23:51;;;;;;;3.80;1.13;;;4.70;93.20;;;;;;5085407;28;20052;-81
2021/12/27 08:26:22;;;;;;;3.20;1.58;;;4.70;93.20;;;;;;5085428;28;20039;-81
2021/12/27 08:28:52;;;;;;;3.13;1.42;;;4.80;93.20;;;;;;5053423;28;20051;-79
2021/12/27 08:31:25;;;;;;;3.30;1.60;;;4.80;93.20;;;;;;5069245;28;20040;-79
2021/12/27 08:33:55;;;;;;;5.68;1.98;;;4.80;93.20;;;;;;5053316;28;20059;-78
2021/12/27 08:36:22;;;;;;;3.70;1.50;;;4.80;93.20;;;;;;5084637;28;20496;-81
2021/12/27 08:38:50;;;;;;;4.03;1.48;;;4.80;93.20;;;;;;5060934;28;20495;-77
2021/12/27 08:41:19;;;;;;;3.35;1.20;;;4.90;93.20;;;;;;5046266;28;20047;-79
2021/12/27 08:44:04;;;;;;;;;;;;;;;;;;;;;
2021/12/27 08:46:35;;;;;;;3.17;1.55;;;4.90;93.20;;;;;;5086407;28;20040;-80
2021/12/27 08:49:03;;;;;;;3.35;1.63;;;4.90;93.20;;;;;;5068167;28;20059;-79
2021/12/27 08:51:33;;;;;;;3.55;1.70;;;5.00;93.20;;;;;;5051843;28;21293;-78
2021/12/27 08:54:02;;;;;;;2.78;1.02;;;5.00;93.20;;;;;;5068237;28;20113;-78
2021/12/27 08:56:32;;;;;;;2.42;1.20;;;5.00;93.20;;;;;;5052253;28;20094;-77
2021/12/27 08:59:02;;;;;;;3.30;1.90;;;5.00;93.20;;;;;;5085074;28;20059;-78
2021/12/27 09:01:29;;;;;;;3.03;1.27;;;5.00;93.20;;;;;;5081604;28;20517;-80
2021/12/27 09:03:57;;;;;;;3.25;1.50;;;5.10;93.20;;;;;;5063870;28;20497;-80
2021/12/27 09:06:27;;;;;;;3.55;0.90;;;5.10;93.20;;;;;;5057507;28;20076;-80
2021/12/27 09:09:00;;;;;;;3.17;1.20;;;5.10;93.20;;;;;;5082366;28;20036;-81
2021/12/27 09:11:27;;;;;;;3.25;1.40;;;5.20;93.30;;;;;;5064799;28;20454;-80
2021/12/27 09:13:54;;;;;;;2.97;1.13;;;5.20;93.30;;;;;;5031903;28;20054;-80
2021/12/27 09:16:44;;;;;;;3.17;1.20;;;5.20;93.30;;;;;;5084879;28;20052;-80
2021/12/27 09:19:12;;;;;;;3.17;1.83;;;5.20;93.30;;;;;;5084296;28;20048;-80
2021/12/27 09:21:40;;;;;;;2.95;1.30;;;5.20;93.50;;;;;;5047332;28;20051;-80
2021/12/27 09:24:13;;;;;;;2.13;0.70;;;5.30;93.30;;;;;;5066600;28;20048;-80
2021/12/27 09:26:40;;;;;;;2.90;1.20;;;5.30;93.30;;;;;;5082970;28;20081;-80
2021/12/27 09:29:08;;;;;;;2.05;0.90;;;5.30;93.30;;;;;;5051383;28;20056;-80
2021/12/27 09:31:35;;;;;;;3.63;1.25;;;5.30;93.30;;;;;;5050087;28;20043;-80
2021/12/27 09:34:03;;;;;;;2.83;1.35;;;5.30;93.30;;;;;;5084250;28;20048;-80
2021/12/27 09:36:34;;;;;;;2.90;1.27;;;5.40;93.30;;;;;;5068907;28;20110;-80
2021/12/27 09:39:02;;;;;;;3.85;1.45;;;5.40;93.30;;;;;;5067685;28;20068;-80
2021/12/27 09:41:29;;;;;;;3.80;1.50;;;5.40;93.30;;;;;;5084492;28;20036;-80
2021/12/27 09:43:57;;;;;;;2.80;1.38;;;5.40;93.30;;;;;;5051525;28;20050;-79
2021/12/27 09:46:24;;;;;;;2.95;1.30;;;5.40;93.30;;;;;;5066933;28;20057;-80
2021/12/27 09:48:54;;;;;;;3.20;1.13;;;5.50;93.30;;;;;;5067536;28;20059;-80
2021/12/27 09:51:21;;;;;;;2.35;0.90;;;5.50;93.30;;;;;;5051922;28;20080;-80
2021/12/27 09:53:48;;;;;;;3.05;1.52;;;5.50;93.30;;;;;;5085023;28;20048;-80
2021/12/27 09:56:17;;;;;;;3.05;1.00;;;5.60;93.30;;;;;;5066743;28;20082;-79
2021/12/27 09:58:45;;;;;;;3.42;1.20;;;5.60;93.20;;;;;;5068124;28;20055;-80
2021/12/27 10:01:15;;;;;;;3.05;1.10;;;5.70;93.50;;;;;;5036652;28;20051;-79
2021/12/27 10:03:52;;;;;;;2.40;1.05;;;5.70;93.20;;;;;;5067568;28;20040;-80
2021/12/27 10:06:23;;;;;;;3.13;1.05;;;5.70;93.20;;;;;;5082753;28;20040;-80
2021/12/27 10:08:53;;;;;;;3.25;1.35;;;5.70;93.20;;;;;;5067573;28;20109;-79
2021/12/27 10:11:34;;;;;;;3.58;1.88;;;5.60;93.20;;;;;;5074157;28;20040;-79
2021/12/27 10:14:24;;;;;;;2.42;1.15;;;5.60;93.30;;;;;;5066777;28;20083;-79
2021/12/27 10:17:03;;;;;;;4.35;1.42;;;5.60;93.30;;;;;;5074835;28;20052;-77
2021/12/27 10:19:33;;;;;;;4.47;1.38;;;5.60;93.30;;;;;;5084065;28;20855;-78
2021/12/27 10:22:00;;;;;;;3.92;1.73;;;5.60;93.30;;;;;;5050929;28;20032;-78
2021/12/27 10:24:29;;;;;;;4.47;1.50;;;5.70;93.30;;;;;;5085145;28;20044;-79
2021/12/27 10:26:59;;;;;;;3.65;1.92;;;5.70;93.30;;;;;;5084414;28;20044;-80
2021/12/27 10:29:29;;;;;;;3.03;1.27;;;5.80;93.30;;;;;;5086857;28;20066;-80
2021/12/27 10:32:04;;;;;;;3.85;1.65;;;5.90;93.30;;;;;;5087653;28;20510;-80
2021/12/27 10:34:33;;;;;;;2.97;1.20;;;5.90;93.30;;;;;;5087596;28;20473;-80
2021/12/27 10:37:09;;;;;;;4.00;1.42;;;6.00;93.20;;;;;;5087572;28;20652;-80
2021/12/27 10:40:02;;;;;;;3.28;1.10;;;6.10;93.20;;;;;;5079652;28;20675;-80
2021/12/27 10:42:37;;;;;;;;;;;6.10;93.10;;;;;;5087190;28;20048;-80
2021/12/27 10:45:18;;;;;;;2.17;0.77;;;6.10;93.10;;;;;;5071040;28;19978;-80
2021/12/27 10:47:47;;;;;;;2.78;0.98;;;6.20;93.10;;;;;;5079016;28;20044;-80
2021/12/27 10:50:22;;;;;;;2.95;1.52;;;6.30;93.10;;;;;;5088460;28;20857;-80
2021/12/27 10:53:15;;;;;;;3.22;1.40;;;6.40;93.10;;;;;;5081320;28;20465;-82
2021/12/27 10:56:00;;;;;;;3.00;1.40;;;6.40;93.00;;;;;;5071760;28;20040;-84
2021/12/27 10:59:00;;;;;;;2.58;1.02;;;6.40;93.00;;;;;;5087237;28;20036;-85
2021/12/27 11:02:11;;;;;;;2.40;1.05;;;6.50;93.00;;;;;;5068554;28;20048;-84
2021/12/27 11:05:08;;;;;;;3.38;1.17;;;6.50;93.00;;;;;;5043518;28;20113;-83
2021/12/27 11:07:41;;;;;;;2.28;0.80;;;6.50;93.00;;;;;;5082555;28;20047;-80
2021/12/27 11:15:59;;;;;;;;;;;;;;;;;;;;;
2021/12/27 11:18:31;;;;;;;1.65;0.90;;;6.40;93.00;;;;;;5086321;28;20055;-82
2021/12/27 11:26:33;;;;;;;;;;;;;;;;;;;;;
2021/12/27 11:34:05;;;;;;;2.13;0.82;;;6.20;93.20;;;;;;5020078;28;20051;-82
2021/12/27 11:36:46;;;;;;;1.60;0.80;;;6.30;93.20;;;;;;5087227;28;20040;-82
2021/12/27 11:42:59;;;;;;;2.55;0.90;;;6.60;93.10;;;;;;5085031;28;20028;-80
2021/12/27 11:45:55;;;;;;;2.50;0.95;;;6.70;93.10;;;;;;5068277;28;20044;-89
2021/12/27 11:48:28;;;;;;;2.75;0.90;;;6.80;93.00;;;;;;5086265;28;20060;-79
2021/12/27 11:51:04;;;;;;;2.75;0.95;;;6.80;93.00;;;;;;5069943;28;20048;-79
2021/12/27 11:53:53;;;;;;;2.85;1.17;;;6.90;93.00;;;;;;5086709;28;20068;-78
2021/12/27 11:56:38;;;;;;;2.67;1.20;;;6.90;93.00;;;;;;5084180;28;20550;-78
2021/12/27 11:59:37;;;;;;;3.85;1.67;;;7.00;93.00;;;;;;5081959;28;20040;-78
2021/12/27 12:02:14;;;;;;;2.50;1.00;;;7.00;92.90;;;;;;5068819;28;20075;-78
2021/12/27 12:04:45;;;;;;;3.13;1.20;;;7.10;93.00;;;;;;5083213;28;20059;-80
2021/12/27 12:07:34;;;;;;;3.75;1.25;;;7.10;92.90;;;;;;5067995;28;20060;-80
2021/12/27 12:10:12;;;;;;;3.30;1.30;;;7.10;92.90;;;;;;5084465;28;20847;-79
2021/12/27 12:12:39;;;;;;;2.60;0.98;;;7.20;93.00;;;;;;5085762;28;20059;-79
2021/12/27 12:15:10;;;;;;;2.78;1.33;;;7.20;92.90;;;;;;5069390;28;20044;-78
2021/12/27 12:17:48;;;;;;;2.13;1.10;;;7.20;92.90;;;;;;5052466;28;20055;-78
2021/12/27 12:20:36;;;;;;;3.00;1.75;;;7.30;92.90;;;;;;5069653;28;20072;-82
2021/12/27 12:23:10;;;;;;;3.55;1.05;;;7.30;92.90;;;;;;5053654;28;20044;-80
2021/12/27 12:25:41;;;;;;;;;;;7.30;92.90;;;;;;5069649;28;20040;-83
2021/12/27 12:28:19;;;;;;;2.55;0.90;;;7.30;92.90;;;;;;5068967;28;20054;-81
2021/12/27 12:30:48;;;;;;;2.22;1.00;;;7.30;92.90;;;;;;5087562;28;20036;-79
2021/12/27 12:33:20;;;;;;;3.45;1.58;;;7.30;92.90;;;;;;5068406;28;20131;-79
2021/12/27 12:35:58;;;;;;;3.15;1.23;;;7.30;93.00;;;;;;5078345;28;20047;-81
2021/12/27 12:38:34;;;;;;;2.42;1.23;;;7.30;93.00;;;;;;5082300;28;20043;-79
2021/12/27 12:41:17;;;;;;;2.53;0.93;;;7.30;93.00;;;;;;5066649;28;20056;-79
2021/12/27 12:43:57;;;;;;;2.80;1.10;;;7.40;93.00;;;;;;5075094;28;20075;-80
2021/12/27 12:46:40;;;;;;;2.38;1.30;;;7.40;93.00;;;;;;5065324;28;20038;-83
2021/12/27 12:49:13;;;;;;;2.63;0.80;;;7.40;93.30;;;;;;5065965;28;20946;-79
2021/12/27 12:51:49;;;;;;;3.40;1.40;;;7.40;93.00;;;;;;5082429;28;20036;-81
2021/12/27 12:54:22;;;;;;;2.30;0.98;;;7.40;93.00;;;;;;5083186;28;20074;-78
2021/12/27 12:56:55;;;;;;;2.70;1.60;;;7.50;93.00;;;;;;5081217;28;20040;-78
2021/12/27 12:59:26;;;;;;;2.75;1.55;;;7.50;93.00;;;;;;5073574;28;20055;-81
2021/12/27 13:02:05;;;;;;;2.15;0.80;;;7.50;93.00;;;;;;5081907;28;20071;-81
2021/12/27 13:05:00;;;;;;;2.80;1.13;;;7.60;93.00;;;;;;5083907;28;20075;-79
2021/12/27 13:08:00;;;;;;;2.50;0.90;;;7.60;93.00;;;;;;5082622;28;20101;-80
2021/12/27 13:10:57;;;;;;;2.65;0.90;;;7.60;93.00;;;;;;5050939;28;20188;-84
2021/12/27 13:13:25;;;;;;;2.25;1.05;;;7.60;93.00;;;;;;5065838;28;20134;-80
2021/12/27 13:16:03;;;;;;;2.20;0.90;;;7.60;93.00;;;;;;5080653;28;20408;-81
2021/12/27 13:18:34;;;;;;;2.08;0.95;;;7.60;93.00;;;;;;5065663;28;20058;-78
2021/12/27 13:21:10;;;;;;;2.75;1.27;;;7.60;93.10;;;;;;5066446;28;20588;-78
2021/12/27 13:23:40;;;;;;;2.58;1.17;;;7.50;93.10;;;;;;5084941;28;20043;-79
2021/12/27 13:26:14;;;;;;;3.30;1.38;;;7.50;93.10;;;;;;5066868;28;20035;-78
2021/12/27 13:28:50;;;;;;;2.92;1.10;;;7.60;93.10;;;;;;5083759;28;20458;-78
2021/12/27 13:31:18;;;;;;;3.10;1.63;;;7.60;93.10;;;;;;5065675;28;20040;-77
2021/12/27 13:33:53;;;;;;;2.40;1.10;;;7.70;93.10;;;;;;5083604;28;20066;-78
2021/12/27 13:36:19;;;;;;;2.97;1.63;;;7.70;93.10;;;;;;5066593;28;20654;-81
2021/12/27 13:39:06;;;;;;;2.08;0.80;;;7.70;93.40;;;;;;5067576;28;20121;-80
2021/12/27 13:41:37;;;;;;;2.60;1.10;;;7.70;93.10;;;;;;5067378;28;20068;-82
2021/12/27 13:44:08;;;;;;;1.80;0.70;;;7.70;93.10;;;;;;5084094;28;20492;-82
2021/12/27 13:46:51;;;;;;;1.45;0.80;;;7.80;93.10;;;;;;5067299;28;20052;-83
2021/12/27 13:49:30;;;;;;;2.45;1.05;;;7.80;93.10;;;;;;5068246;28;20044;-81
2021/12/27 13:52:31;;;;;;;2.10;1.00;;;7.80;93.10;;;;;;5085888;28;20044;-83
2021/12/27 13:55:07;;;;;;;2.53;1.17;;;7.70;93.10;;;;;;5085347;28;20052;-86
2021/12/27 13:57:37;;;;;;;2.05;1.02;;;7.70;93.20;;;;;;5087521;28;20059;-81
2021/12/27 14:00:23;;;;;;;2.60;1.20;;;7.70;93.20;;;;;;5089548;28;20060;-88
2021/12/27 14:03:00;;;;;;;2.15;0.98;;;7.70;93.20;;;;;;5089213;28;20032;-89
2021/12/27 14:05:34;;;;;;;2.60;0.95;;;7.70;93.20;;;;;;5081406;28;20036;-89
2021/12/27 14:08:15;;;;;;;1.90;0.75;;;7.70;93.20;;;;;;5072876;28;20041;-87
2021/12/27 14:10:58;;;;;;;1.80;0.70;;;7.70;93.20;;;;;;5073179;28;20048;-85
2021/12/27 14:14:04;;;;;;;2.13;0.63;;;7.70;93.30;;;;;;5047539;28;20052;-84